Delaplaine, Arkansas
Current Conditions -  °F | °C
As of 10:15 AM on Saturday 27 Dec 2014 (Local Time) from K4M9 Reporting Station
Haze Haze  
Wind Chill: 50°   Ceiling: 1100
Heat Index: 50°   Visibility: 5mi
Dew Point: 50°   Wind: 6mph
Humidity: 100%   Direction: 150°SSE
Pressure: 30.15"   Gusts: NA
Location:  36.23°N, 90.73°W
Report Text: K4M9 271615Z AUTO 15005KT 5SM BR OVC011 10/10 A3015 RMK AO2 LTG DSNT S
Loading
Personal Weather Stations






























Interactive Weather Map New forecast layout! Learn more

10-Day Weather Forecast

Advertisements
Track Severe Weather on mobile